createdAt,value
2022-10-14T00:00:21.528Z,0.00
2022-10-14T00:01:21.658Z,0.00
2022-10-14T00:02:21.597Z,0.00
2022-10-14T00:03:21.505Z,0.00
2022-10-14T00:04:21.479Z,0.00
2022-10-14T00:05:21.471Z,0.00
2022-10-14T00:06:21.450Z,0.00
2022-10-14T00:07:21.671Z,0.00
2022-10-14T00:08:21.457Z,0.00
2022-10-14T00:09:21.428Z,0.00
2022-10-14T00:10:21.426Z,0.00
2022-10-14T00:11:21.394Z,0.00
2022-10-14T00:12:21.385Z,0.00
2022-10-14T00:13:21.391Z,0.00
2022-10-14T00:14:21.367Z,0.00
2022-10-14T00:15:21.348Z,0.00
2022-10-14T00:16:21.335Z,0.00
2022-10-14T00:17:21.548Z,0.00
2022-10-14T00:18:21.414Z,0.00
2022-10-14T00:19:21.307Z,0.00
2022-10-14T00:20:21.297Z,0.00
2022-10-14T00:21:21.288Z,0.00
2022-10-14T00:22:21.278Z,0.00
2022-10-14T00:23:21.272Z,0.00
2022-10-14T00:24:21.248Z,0.00
2022-10-14T00:25:21.234Z,0.00
2022-10-14T00:26:21.250Z,0.00
2022-10-14T00:27:21.502Z,0.00
2022-10-14T00:28:21.257Z,0.00
2022-10-14T00:29:21.196Z,0.00
2022-10-14T00:30:21.186Z,0.00
2022-10-14T00:31:21.167Z,0.00
2022-10-14T00:32:21.155Z,0.00
2022-10-14T00:33:21.163Z,0.00
2022-10-14T00:34:21.131Z,0.00
2022-10-14T00:35:21.128Z,0.00
2022-10-14T00:36:21.109Z,0.00
2022-10-14T00:37:21.348Z,0.00
2022-10-14T00:38:21.107Z,0.00
2022-10-14T00:39:21.081Z,0.00
2022-10-14T00:40:21.064Z,0.00
2022-10-14T00:41:21.059Z,0.00
2022-10-14T00:42:21.063Z,0.00
2022-10-14T00:43:21.051Z,0.00
2022-10-14T00:44:21.019Z,0.00
2022-10-14T00:45:21.013Z,0.00
2022-10-14T00:46:21.007Z,0.00
2022-10-14T00:47:21.362Z,0.00
2022-10-14T00:48:20.990Z,0.00
2022-10-14T00:49:20.967Z,0.00
2022-10-14T00:50:20.949Z,0.00
2022-10-14T00:51:20.937Z,0.00
2022-10-14T00:52:20.930Z,0.00
2022-10-14T00:53:20.936Z,0.00
2022-10-14T00:54:20.909Z,0.00
2022-10-14T00:55:20.891Z,0.00
2022-10-14T00:56:20.883Z,0.00
2022-10-14T00:57:21.145Z,0.00
2022-10-14T00:58:20.892Z,0.00
2022-10-14T00:59:20.853Z,0.00
2022-10-14T01:00:20.834Z,0.00
2022-10-14T01:01:20.832Z,0.00
2022-10-14T01:02:20.815Z,0.00
2022-10-14T01:03:20.814Z,0.00
2022-10-14T01:04:20.797Z,0.00
2022-10-14T01:05:20.783Z,0.00
2022-10-14T01:06:20.773Z,0.00
2022-10-14T01:07:21.094Z,0.00
2022-10-14T01:08:20.770Z,0.00
2022-10-14T01:09:20.740Z,0.00
2022-10-14T01:10:20.722Z,0.00
2022-10-14T01:11:20.710Z,0.00
2022-10-14T01:12:29.742Z,0.00
2022-10-14T01:13:21.702Z,0.00
2022-10-14T01:14:20.694Z,0.00
2022-10-14T01:15:20.683Z,0.00
2022-10-14T01:16:20.656Z,0.00
2022-10-14T01:17:20.662Z,0.00
2022-10-14T01:18:20.629Z,0.00
2022-10-14T01:19:20.628Z,0.00
2022-10-14T01:20:20.614Z,0.00
2022-10-14T01:21:20.598Z,0.00
2022-10-14T01:22:22.451Z,0.00
2022-10-14T01:23:20.584Z,0.00
2022-10-14T01:24:20.570Z,0.00
2022-10-14T01:25:20.559Z,0.00
2022-10-14T01:26:20.543Z,0.00
2022-10-14T01:27:20.529Z,0.00
2022-10-14T01:28:20.602Z,0.00
2022-10-14T01:29:20.506Z,0.00
2022-10-14T01:30:20.526Z,0.00
2022-10-14T01:31:20.490Z,0.00
2022-10-14T01:32:20.721Z,0.00
2022-10-14T01:33:20.473Z,0.00
2022-10-14T01:34:20.454Z,0.00
2022-10-14T01:35:20.435Z,0.00
2022-10-14T01:36:20.426Z,0.00
2022-10-14T01:37:20.414Z,0.00
2022-10-14T01:38:20.423Z,0.00
2022-10-14T01:39:20.390Z,0.00
2022-10-14T01:40:20.385Z,0.00
2022-10-14T01:41:20.377Z,0.00
2022-10-14T01:42:20.591Z,0.00
2022-10-14T01:43:20.360Z,0.00
2022-10-14T01:44:20.342Z,0.00
2022-10-14T01:45:20.339Z,0.00
2022-10-14T01:46:20.337Z,0.00
2022-10-14T01:47:20.313Z,0.00
2022-10-14T01:48:20.317Z,0.00
2022-10-14T01:49:20.277Z,0.00
2022-10-14T01:50:20.269Z,0.00
2022-10-14T01:51:20.257Z,0.00
2022-10-14T01:52:20.671Z,0.00
2022-10-14T01:53:20.246Z,0.00
2022-10-14T01:54:20.226Z,0.00
2022-10-14T01:55:20.208Z,0.00
2022-10-14T01:56:20.203Z,0.00
2022-10-14T01:57:20.192Z,0.00
2022-10-14T01:58:20.198Z,0.00
2022-10-14T01:59:20.164Z,0.00
2022-10-14T02:00:20.158Z,0.00
2022-10-14T08:05:38.638Z,1076.00
2022-10-14T08:06:22.591Z,1156.00
2022-10-14T08:07:21.846Z,1264.00
2022-10-14T08:08:21.569Z,1368.00
2022-10-14T08:09:21.595Z,1436.00
2022-10-14T08:10:21.556Z,1496.00
2022-10-14T08:11:21.558Z,1536.00
2022-10-14T08:12:21.856Z,1540.00
2022-10-14T08:13:21.553Z,1528.00
2022-10-14T08:14:21.513Z,1504.00
2022-10-14T08:15:21.513Z,1464.00
2022-10-14T08:16:21.485Z,1404.00
2022-10-14T08:17:21.486Z,1332.00
2022-10-14T08:18:21.461Z,1300.00
2022-10-14T08:19:21.444Z,1272.00
2022-10-14T08:21:21.440Z,1232.00
2022-10-14T08:22:21.640Z,1224.00
2022-10-14T08:23:21.420Z,1220.00
2022-10-14T08:24:21.393Z,1228.00
2022-10-14T08:25:21.376Z,1252.00
2022-10-14T08:26:21.365Z,1292.00
2022-10-14T08:27:21.364Z,1348.00
2022-10-14T08:28:21.402Z,1400.00
2022-10-14T08:29:21.362Z,1396.00
2022-10-14T08:30:21.391Z,1332.00
2022-10-14T08:31:21.329Z,1280.00
2022-10-14T08:32:21.650Z,1264.00
2022-10-14T08:33:21.285Z,1284.00
2022-10-14T08:34:21.285Z,1320.00
2022-10-14T08:35:21.282Z,1376.00
2022-10-14T08:36:21.258Z,1424.00
2022-10-14T08:37:21.258Z,1464.00
2022-10-14T08:38:21.228Z,1484.00
2022-10-14T08:39:21.232Z,1524.00
2022-10-14T08:40:21.315Z,1576.00
2022-10-14T08:41:21.223Z,1600.00
2022-10-14T08:42:21.457Z,1616.00
2022-10-14T08:43:21.174Z,1664.00
2022-10-14T08:44:21.169Z,1700.00
2022-10-14T08:45:21.156Z,1744.00
2022-10-14T08:46:21.145Z,1728.00
2022-10-14T08:47:21.152Z,1760.00
2022-10-14T08:48:21.121Z,1792.00
2022-10-14T08:49:21.105Z,1888.00
2022-10-14T08:50:21.207Z,2000.00
2022-10-14T08:51:21.101Z,2056.00
2022-10-14T08:52:21.355Z,2052.00
2022-10-14T08:53:21.111Z,1980.00
2022-10-14T08:54:21.053Z,1916.00
2022-10-14T08:55:21.035Z,1908.00
2022-10-14T08:56:21.026Z,1916.00
2022-10-14T08:57:21.012Z,1940.00
2022-10-14T08:58:21.072Z,1908.00
2022-10-14T08:59:21.007Z,1808.00
2022-10-14T09:00:21.069Z,1748.00
2022-10-14T09:01:20.974Z,1812.00
2022-10-14T09:02:21.530Z,1912.00
2022-10-14T09:03:20.983Z,1908.00
2022-10-14T09:04:20.971Z,1828.00
2022-10-14T09:05:20.951Z,1744.00
2022-10-14T09:06:20.908Z,1680.00
2022-10-14T09:07:20.918Z,1672.00
2022-10-14T09:08:20.893Z,1732.00
2022-10-14T09:09:20.904Z,1816.00
2022-10-14T09:10:20.931Z,1896.00
2022-10-14T09:11:20.869Z,1932.00
2022-10-14T09:12:21.232Z,1968.00
2022-10-14T09:13:20.839Z,1996.00
2022-10-14T09:14:20.817Z,1992.00
2022-10-14T09:15:20.807Z,2076.00
2022-10-14T09:16:20.801Z,2204.00
2022-10-14T09:17:20.801Z,2352.00
2022-10-14T09:18:20.778Z,2428.00
2022-10-14T09:19:20.776Z,2460.00
2022-10-14T09:20:20.750Z,2472.00
2022-10-14T09:21:33.775Z,2428.00
2022-10-14T09:22:22.083Z,2412.00
2022-10-14T09:23:20.714Z,2416.00
2022-10-14T09:24:20.705Z,2480.00
2022-10-14T09:25:20.712Z,2520.00
2022-10-14T09:26:20.682Z,2568.00
2022-10-14T09:27:21.001Z,2576.00
2022-10-14T09:28:20.690Z,2524.00
2022-10-14T09:29:20.658Z,2576.00
2022-10-14T09:30:20.651Z,2644.00
2022-10-14T09:31:20.702Z,2676.00
2022-10-14T09:32:21.170Z,2656.00
2022-10-14T09:33:20.690Z,2664.00
2022-10-14T09:34:20.708Z,2672.00
2022-10-14T09:35:20.612Z,2848.00
2022-10-14T09:36:20.603Z,2900.00
2022-10-14T09:37:20.993Z,2680.00
2022-10-14T09:38:20.555Z,2564.00
2022-10-14T09:39:20.594Z,2348.00
2022-10-14T09:40:20.585Z,2184.00
2022-10-14T09:41:20.573Z,2180.00
2022-10-14T09:42:20.499Z,2280.00
2022-10-14T09:43:20.495Z,2424.00
2022-10-14T09:44:20.476Z,2640.00
2022-10-14T09:45:20.477Z,2472.00
2022-10-14T09:46:20.477Z,2308.00
2022-10-14T09:47:20.767Z,2444.00
2022-10-14T09:48:20.434Z,2820.00
2022-10-14T09:49:20.435Z,2872.00
2022-10-14T09:50:20.426Z,2788.00
2022-10-14T09:51:20.407Z,2900.00
2022-10-14T09:52:20.404Z,2952.00
2022-10-14T09:53:20.378Z,3072.00
2022-10-14T09:54:20.374Z,3420.00
2022-10-14T09:55:20.366Z,3696.00
2022-10-14T09:56:20.905Z,3724.00
2022-10-14T09:57:20.915Z,3732.00
2022-10-14T09:58:20.339Z,3664.00
2022-10-14T09:59:20.327Z,3736.00
2022-10-14T10:00:20.301Z,3808.00
2022-10-14T10:01:20.296Z,4036.00
2022-10-14T10:02:20.437Z,3980.00
2022-10-14T10:03:20.274Z,3868.00
2022-10-14T10:04:20.274Z,3784.00
2022-10-14T10:05:20.244Z,3708.00
2022-10-14T10:06:20.248Z,3656.00
2022-10-14T10:07:20.581Z,3628.00
2022-10-14T10:08:20.219Z,3424.00
2022-10-14T10:09:20.213Z,3324.00
2022-10-14T10:10:20.213Z,3324.00
2022-10-14T10:11:20.178Z,3344.00
2022-10-14T10:12:20.164Z,3348.00
2022-10-14T10:13:20.187Z,3276.00
2022-10-14T10:14:20.147Z,3248.00
2022-10-14T10:15:20.145Z,3176.00
2022-10-14T10:16:20.147Z,3040.00
2022-10-14T10:17:20.581Z,2920.00
2022-10-14T10:18:20.104Z,2840.00
2022-10-14T10:19:20.095Z,2792.00
2022-10-14T10:20:20.075Z,2792.00
2022-10-14T10:21:20.119Z,2716.00
2022-10-14T10:23:20.044Z,2436.00
2022-10-14T10:24:20.035Z,2408.00
2022-10-14T10:25:20.019Z,2408.00
2022-10-14T10:26:20.008Z,2416.00
2022-10-14T10:27:20.445Z,2420.00
2022-10-14T10:28:20.056Z,2412.00
2022-10-14T10:29:19.998Z,2392.00
2022-10-14T10:30:19.967Z,2388.00
2022-10-14T10:31:20.183Z,2320.00
2022-10-14T10:32:20.329Z,2316.00
2022-10-14T10:33:19.936Z,2392.00
2022-10-14T10:34:19.937Z,2436.00
2022-10-14T10:35:19.913Z,2424.00
2022-10-14T10:37:20.220Z,2212.00
2022-10-14T10:38:19.896Z,2108.00
2022-10-14T10:39:19.859Z,1912.00
2022-10-14T10:40:19.846Z,1916.00
2022-10-14T10:41:19.852Z,1828.00
2022-10-14T10:42:20.197Z,1716.00
2022-10-14T10:43:19.826Z,1644.00
2022-10-14T10:44:19.834Z,1664.00
2022-10-14T10:45:19.829Z,1716.00
2022-10-14T10:46:19.809Z,1752.00
2022-10-14T10:47:19.787Z,1792.00
2022-10-14T10:48:19.772Z,1760.00
2022-10-14T10:49:19.767Z,1732.00
2022-10-14T10:50:19.750Z,1648.00
2022-10-14T10:51:19.777Z,1560.00
2022-10-14T10:52:21.458Z,1556.00
2022-10-14T10:53:19.723Z,1572.00
2022-10-14T10:54:19.705Z,1612.00
2022-10-14T10:55:19.704Z,1708.00
2022-10-14T10:56:19.699Z,1836.00
2022-10-14T10:57:19.938Z,1960.00
2022-10-14T10:58:19.660Z,2040.00
2022-10-14T11:00:19.665Z,1996.00
2022-10-14T11:01:19.825Z,1912.00
2022-10-14T11:02:19.895Z,1856.00
2022-10-14T11:03:19.609Z,1824.00
2022-10-14T11:04:19.596Z,1756.00
2022-10-14T11:05:19.586Z,1704.00
2022-10-14T11:06:19.587Z,1732.00
2022-10-14T11:07:22.781Z,1744.00
2022-10-14T11:08:20.613Z,1752.00
2022-10-14T11:09:19.541Z,1784.00
2022-10-14T11:10:19.525Z,1804.00
2022-10-14T11:11:19.516Z,1772.00
2022-10-14T11:12:19.804Z,1732.00
2022-10-14T11:13:19.495Z,1672.00
2022-10-14T11:14:19.476Z,1628.00
2022-10-14T11:16:19.453Z,1472.00
2022-10-14T11:17:19.715Z,1412.00
2022-10-14T11:18:19.434Z,1388.00
2022-10-14T11:19:19.430Z,1420.00
2022-10-14T11:20:19.428Z,1348.00
2022-10-14T11:21:19.404Z,1392.00
2022-10-14T11:22:19.887Z,1492.00
2022-10-14T11:23:19.383Z,1584.00
2022-10-14T11:24:19.367Z,1652.00
2022-10-14T11:25:19.359Z,1716.00
2022-10-14T11:26:19.343Z,1800.00
2022-10-14T11:27:22.366Z,1824.00
2022-10-14T11:28:20.408Z,1744.00
2022-10-14T11:29:19.309Z,1604.00
2022-10-14T11:30:19.282Z,1596.00
2022-10-14T11:31:19.272Z,1620.00
2022-10-14T11:32:19.269Z,1588.00
2022-10-14T11:33:19.284Z,1472.00
2022-10-14T11:34:19.250Z,1416.00
2022-10-14T11:35:19.235Z,1448.00
2022-10-14T11:36:19.226Z,1516.00
2022-10-14T11:37:19.390Z,1600.00
2022-10-14T11:38:19.205Z,1660.00
2022-10-14T11:39:19.193Z,1728.00
2022-10-14T11:40:19.180Z,1704.00
2022-10-14T11:41:19.167Z,1648.00
2022-10-14T11:42:19.174Z,1560.00
2022-10-14T11:43:19.150Z,1600.00
2022-10-14T11:44:19.124Z,1560.00
2022-10-14T11:45:21.299Z,1432.00
2022-10-14T11:46:19.106Z,1276.00
2022-10-14T11:47:19.255Z,1188.00
2022-10-14T11:48:19.118Z,1224.00
2022-10-14T11:49:19.091Z,1268.00
2022-10-14T11:50:19.068Z,1284.00
2022-10-14T11:51:19.046Z,1300.00
2022-10-14T11:52:19.037Z,1184.00
2022-10-14T11:53:19.051Z,1144.00
2022-10-14T11:54:19.023Z,1220.00
2022-10-14T11:55:19.013Z,1300.00
2022-10-14T11:56:18.996Z,1460.00
2022-10-14T11:57:19.044Z,1480.00
2022-10-14T11:58:19.015Z,1456.00
2022-10-14T11:59:18.963Z,1532.00
2022-10-14T12:00:18.991Z,1712.00
2022-10-14T12:01:18.955Z,1836.00
2022-10-14T12:02:19.065Z,1908.00
2022-10-14T12:03:18.945Z,1896.00
2022-10-14T12:04:18.906Z,1820.00
2022-10-14T12:05:18.916Z,1780.00
2022-10-14T12:06:18.892Z,1792.00
2022-10-14T12:07:18.876Z,1816.00
2022-10-14T12:08:18.883Z,1788.00
2022-10-14T12:09:18.860Z,1724.00
2022-10-14T12:10:18.850Z,1620.00
2022-10-14T12:11:18.844Z,1624.00
2022-10-14T12:12:19.090Z,1776.00
2022-10-14T12:13:18.823Z,1832.00
2022-10-14T12:14:18.787Z,1744.00
2022-10-14T12:15:18.835Z,1580.00
2022-10-14T12:16:18.765Z,1412.00
2022-10-14T12:17:19.039Z,1328.00
2022-10-14T12:18:18.765Z,1212.00
2022-10-14T12:19:18.737Z,1152.00
2022-10-14T12:20:18.717Z,1160.00
2022-10-14T12:21:18.839Z,1092.00
2022-10-14T12:22:18.815Z,1004.00
2022-10-14T12:23:18.695Z,1052.00
2022-10-14T12:24:18.680Z,1088.00
2022-10-14T12:25:18.688Z,1096.00
2022-10-14T12:26:18.653Z,1144.00
2022-10-14T12:27:18.651Z,1260.00
2022-10-14T12:28:18.707Z,1344.00
2022-10-14T12:29:18.618Z,1352.00
2022-10-14T12:30:18.611Z,1344.00
2022-10-14T12:31:18.597Z,1280.00
2022-10-14T12:32:18.591Z,1248.00
2022-10-14T12:33:22.545Z,1220.00
2022-10-14T12:34:18.561Z,1228.00
2022-10-14T12:35:18.548Z,1204.00
2022-10-14T12:36:18.548Z,1144.00
2022-10-14T12:37:18.547Z,1092.00
2022-10-14T12:38:18.533Z,1060.00
2022-10-14T12:39:18.503Z,1016.00
2022-10-14T12:40:18.499Z,988.00
2022-10-14T12:41:18.487Z,976.00
2022-10-14T12:42:18.472Z,1008.00
2022-10-14T12:43:18.483Z,1068.00
2022-10-14T12:44:18.447Z,1140.00
2022-10-14T12:45:18.432Z,1216.00
2022-10-14T12:46:18.442Z,1300.00
2022-10-14T12:47:18.412Z,1384.00
2022-10-14T12:48:18.426Z,1508.00
2022-10-14T12:49:18.420Z,1632.00
2022-10-14T12:50:18.384Z,1680.00
2022-10-14T12:51:18.366Z,1636.00
2022-10-14T12:52:18.367Z,1584.00
2022-10-14T12:53:18.384Z,1592.00
2022-10-14T12:54:18.341Z,1600.00
2022-10-14T12:55:18.319Z,1660.00
2022-10-14T12:56:18.329Z,1672.00
2022-10-14T12:57:18.454Z,1600.00
2022-10-14T12:58:18.298Z,1376.00
2022-10-14T12:59:18.286Z,1284.00
2022-10-14T13:00:18.263Z,1284.00
2022-10-14T13:01:18.322Z,1320.00
2022-10-14T13:02:18.248Z,1468.00
2022-10-14T13:03:18.246Z,1712.00
2022-10-14T13:04:20.022Z,1864.00
2022-10-14T13:05:18.205Z,1796.00
2022-10-14T13:06:18.203Z,1732.00
2022-10-14T13:07:39.880Z,1760.00
2022-10-14T13:08:19.212Z,1720.00
2022-10-14T13:09:18.182Z,1792.00
2022-10-14T13:10:18.161Z,1832.00
2022-10-14T13:11:18.145Z,1892.00
2022-10-14T13:12:18.134Z,1832.00
2022-10-14T13:13:18.122Z,1828.00
2022-10-14T13:14:18.122Z,2016.00
2022-10-14T13:15:18.100Z,2192.00
2022-10-14T13:16:18.095Z,2324.00
2022-10-14T13:17:18.069Z,2240.00
2022-10-14T13:18:18.866Z,2288.00
2022-10-14T13:19:18.066Z,2156.00
2022-10-14T13:20:18.040Z,1988.00
2022-10-14T13:21:18.056Z,1996.00
2022-10-14T13:22:18.023Z,2028.00
2022-10-14T13:23:18.002Z,1940.00
2022-10-14T13:24:18.009Z,1884.00
2022-10-14T13:25:18.003Z,1732.00
2022-10-14T13:26:17.971Z,1504.00
2022-10-14T13:27:17.965Z,1308.00
2022-10-14T13:28:18.021Z,1368.00
2022-10-14T13:29:18.090Z,1408.00
2022-10-14T13:30:17.929Z,1416.00
2022-10-14T13:31:17.920Z,1296.00
2022-10-14T13:32:21.155Z,1272.00
2022-10-14T13:33:17.889Z,1280.00
2022-10-14T13:34:17.898Z,1312.00
2022-10-14T13:35:17.865Z,1372.00
2022-10-14T13:36:17.858Z,1296.00
2022-10-14T13:37:17.851Z,1328.00
2022-10-14T13:38:17.838Z,1416.00
2022-10-14T13:39:17.837Z,1400.00
2022-10-14T13:40:17.865Z,1328.00
2022-10-14T13:41:17.815Z,1248.00
2022-10-14T13:42:17.791Z,1300.00
2022-10-14T13:43:17.772Z,1112.00
2022-10-14T13:44:17.783Z,988.00
2022-10-14T13:45:17.753Z,976.00
2022-10-14T13:46:17.749Z,896.00
2022-10-14T13:47:17.730Z,848.00
2022-10-14T13:48:17.733Z,888.00
2022-10-14T13:49:17.795Z,936.00
2022-10-14T13:50:17.703Z,1036.00
2022-10-14T13:51:32.062Z,1012.00
2022-10-14T13:52:18.679Z,1008.00
2022-10-14T13:53:17.662Z,1120.00
2022-10-14T13:54:17.671Z,1228.00
2022-10-14T13:55:17.648Z,1284.00
2022-10-14T13:56:17.632Z,1024.00
2022-10-14T13:57:47.792Z,804.00
2022-10-14T13:58:18.633Z,684.00
2022-10-14T13:59:32.388Z,580.00
2022-10-14T14:01:18.634Z,512.00
2022-10-14T14:02:17.595Z,528.00
2022-10-14T14:03:17.548Z,560.00
2022-10-14T14:04:17.540Z,676.00
2022-10-14T14:05:17.642Z,764.00
2022-10-14T14:06:17.518Z,768.00
2022-10-14T14:07:59.054Z,740.00
2022-10-14T14:08:38.842Z,748.00
2022-10-14T14:09:18.475Z,780.00
2022-10-14T14:10:17.478Z,828.00
2022-10-14T14:11:18.775Z,816.00
2022-10-14T14:12:17.448Z,868.00
2022-10-14T14:13:17.448Z,872.00
2022-10-14T14:14:17.419Z,1036.00
2022-10-14T14:15:17.426Z,1024.00
2022-10-14T14:16:17.399Z,888.00
2022-10-14T14:17:17.384Z,776.00
2022-10-14T14:18:17.369Z,808.00
2022-10-14T14:19:17.367Z,924.00
2022-10-14T14:20:17.366Z,1004.00
2022-10-14T14:21:17.341Z,1056.00
2022-10-14T14:22:17.330Z,1048.00
2022-10-14T14:23:17.317Z,1004.00
2022-10-14T14:24:17.309Z,940.00
2022-10-14T14:25:34.077Z,856.00
2022-10-14T14:26:19.499Z,848.00
2022-10-14T14:27:17.274Z,860.00
2022-10-14T14:28:17.295Z,944.00
2022-10-14T14:29:17.289Z,1068.00
2022-10-14T14:30:17.245Z,1128.00
2022-10-14T14:31:17.218Z,1132.00
2022-10-14T14:32:17.206Z,1092.00
2022-10-14T14:33:17.201Z,1064.00
2022-10-14T14:34:17.190Z,1084.00
2022-10-14T14:35:19.310Z,1108.00
2022-10-14T14:36:27.380Z,1152.00
2022-10-14T14:37:37.081Z,1192.00
2022-10-14T14:38:18.144Z,1184.00
2022-10-14T14:39:17.126Z,1184.00
2022-10-14T14:40:17.121Z,1188.00
2022-10-14T14:41:17.117Z,1228.00
2022-10-14T14:42:17.092Z,1220.00
2022-10-14T14:43:17.084Z,1148.00
2022-10-14T14:44:26.208Z,1084.00
2022-10-14T14:45:18.089Z,988.00
2022-10-14T14:46:17.052Z,856.00
2022-10-14T14:47:17.056Z,816.00
2022-10-14T14:48:17.021Z,748.00
2022-10-14T14:49:17.008Z,680.00
2022-10-14T14:50:32.287Z,612.00
2022-10-14T14:51:18.006Z,580.00
2022-10-14T14:52:16.974Z,560.00
2022-10-14T14:53:16.987Z,616.00
2022-10-14T14:54:16.959Z,612.00
2022-10-14T14:55:16.940Z,504.00
2022-10-14T14:56:16.932Z,380.00
2022-10-14T14:57:16.926Z,356.00
2022-10-14T14:58:16.920Z,360.00
2022-10-14T14:59:16.891Z,292.00
2022-10-14T15:00:16.882Z,264.00
2022-10-14T15:01:16.970Z,420.00
2022-10-14T15:02:16.858Z,592.00
2022-10-14T15:03:16.867Z,684.00
2022-10-14T15:04:16.850Z,700.00
2022-10-14T15:05:16.825Z,788.00
2022-10-14T15:06:16.824Z,820.00
2022-10-14T15:07:21.128Z,828.00
2022-10-14T15:08:16.789Z,804.00
2022-10-14T15:09:16.801Z,756.00
2022-10-14T15:10:16.768Z,704.00
2022-10-14T15:11:16.765Z,656.00
2022-10-14T15:12:16.746Z,624.00
2022-10-14T15:13:16.743Z,636.00
2022-10-14T15:14:20.047Z,668.00
2022-10-14T15:15:17.715Z,692.00
2022-10-14T15:16:16.701Z,712.00
2022-10-14T15:17:16.705Z,736.00
2022-10-14T15:18:16.675Z,732.00
2022-10-14T15:19:16.686Z,724.00
2022-10-14T15:21:16.646Z,692.00
2022-10-14T15:22:16.631Z,688.00
2022-10-14T15:23:16.615Z,680.00
2022-10-14T15:24:16.605Z,660.00
2022-10-14T15:25:16.613Z,632.00
2022-10-14T15:26:16.583Z,604.00
2022-10-14T15:27:16.571Z,588.00
2022-10-14T15:28:16.596Z,592.00
2022-10-14T15:29:16.664Z,596.00
2022-10-14T15:30:16.562Z,596.00
2022-10-14T15:31:16.529Z,600.00
2022-10-14T15:32:16.528Z,608.00
2022-10-14T15:33:16.531Z,628.00
2022-10-14T15:34:16.489Z,648.00
2022-10-14T15:35:16.484Z,644.00
2022-10-14T15:36:16.480Z,608.00
2022-10-14T15:37:16.462Z,588.00
2022-10-14T15:38:16.686Z,576.00
2022-10-14T15:39:16.430Z,560.00
2022-10-14T15:40:16.422Z,540.00
2022-10-14T15:41:16.421Z,532.00
2022-10-14T15:42:16.403Z,536.00
2022-10-14T15:43:17.687Z,536.00
2022-10-14T15:44:16.383Z,532.00
2022-10-14T15:45:16.369Z,528.00
2022-10-14T15:46:16.370Z,516.00
2022-10-14T15:47:16.340Z,496.00
2022-10-14T15:48:16.328Z,476.00
2022-10-14T15:49:16.340Z,452.00
2022-10-14T15:50:16.315Z,436.00
2022-10-14T15:51:16.314Z,432.00
2022-10-14T15:52:16.283Z,400.00
2022-10-14T15:53:16.269Z,368.00
2022-10-14T15:54:16.256Z,332.00
2022-10-14T15:55:16.245Z,312.00
2022-10-14T15:56:16.255Z,296.00
2022-10-14T15:57:16.872Z,288.00
2022-10-14T15:58:16.217Z,280.00
2022-10-14T15:59:16.213Z,284.00
2022-10-14T16:00:16.195Z,276.00
2022-10-14T16:01:16.280Z,264.00
2022-10-14T16:02:16.171Z,244.00
2022-10-14T16:03:16.163Z,224.00
2022-10-14T16:04:16.150Z,212.00
2022-10-14T16:05:20.393Z,204.00
2022-10-14T16:06:16.133Z,200.00
2022-10-14T16:07:16.114Z,196.00
2022-10-14T16:08:16.105Z,192.00
2022-10-14T16:09:16.105Z,192.00
2022-10-14T16:10:16.072Z,192.00
2022-10-14T16:11:16.081Z,196.00
2022-10-14T16:12:16.047Z,188.00
2022-10-14T16:13:16.037Z,180.00
2022-10-14T16:14:16.030Z,164.00
2022-10-14T16:15:16.012Z,164.00
2022-10-14T16:16:16.022Z,160.00
2022-10-14T16:17:16.078Z,144.00
2022-10-14T16:18:15.989Z,144.00
2022-10-14T16:19:15.970Z,144.00
2022-10-14T16:20:15.964Z,144.00
2022-10-14T16:21:16.075Z,132.00
2022-10-14T16:22:15.970Z,128.00
2022-10-14T16:23:15.933Z,124.00
2022-10-14T16:24:15.928Z,116.00
2022-10-14T16:25:15.904Z,108.00
2022-10-14T16:26:15.898Z,104.00
2022-10-14T16:27:15.885Z,108.00
2022-10-14T16:28:15.940Z,104.00
2022-10-14T16:29:15.855Z,100.00
2022-10-14T16:30:15.842Z,84.00
2022-10-14T16:31:15.850Z,76.00
2022-10-14T16:32:15.825Z,68.00
2022-10-14T16:33:15.819Z,60.00
2022-10-14T16:34:15.798Z,56.00
2022-10-14T16:35:15.786Z,56.00
2022-10-14T16:36:15.788Z,48.00
2022-10-14T16:37:15.860Z,48.00
2022-10-14T16:38:15.753Z,40.00
2022-10-14T16:39:15.751Z,32.00
2022-10-14T16:40:15.734Z,28.00
2022-10-14T16:41:15.734Z,28.00
2022-10-14T16:43:15.704Z,24.00
2022-10-14T16:44:15.685Z,20.00
2022-10-14T16:45:15.684Z,16.00
2022-10-14T16:46:15.864Z,16.00
2022-10-14T16:47:15.670Z,16.00
2022-10-14T16:48:15.650Z,12.00
2022-10-14T16:49:15.632Z,12.00
2022-10-14T16:50:15.619Z,8.00
2022-10-14T16:51:15.676Z,8.00
2022-10-14T16:52:15.610Z,8.00
2022-10-14T16:53:15.671Z,8.00
2022-10-14T16:54:15.582Z,8.00
2022-10-14T16:55:15.608Z,8.00
2022-10-14T16:56:15.550Z,4.00
2022-10-14T16:57:15.564Z,8.00
2022-10-14T16:58:15.527Z,8.00
2022-10-14T16:59:15.517Z,4.00
2022-10-14T17:00:15.593Z,4.00
2022-10-14T17:01:15.570Z,4.00
2022-10-14T17:02:15.498Z,4.00
2022-10-14T17:03:15.472Z,0.00
2022-10-14T17:04:15.488Z,4.00
2022-10-14T17:05:15.451Z,4.00
2022-10-14T17:06:16.730Z,0.00
2022-10-14T17:07:15.443Z,0.00
2022-10-14T17:08:15.423Z,0.00
2022-10-14T17:09:15.539Z,0.00
2022-10-14T17:10:15.402Z,0.00
2022-10-14T17:11:15.411Z,0.00
2022-10-14T17:12:15.389Z,0.00
2022-10-14T17:13:15.363Z,0.00
2022-10-14T17:14:15.371Z,0.00
2022-10-14T17:15:15.339Z,0.00
2022-10-14T17:16:15.331Z,0.00
2022-10-14T17:17:15.331Z,0.00
2022-10-14T17:18:17.721Z,0.00
2022-10-14T17:19:15.304Z,0.00
2022-10-14T17:20:15.284Z,0.00
2022-10-14T17:21:15.280Z,0.00
2022-10-14T17:22:15.280Z,0.00
2022-10-14T17:23:15.254Z,0.00
2022-10-14T17:24:15.246Z,0.00
2022-10-14T17:25:15.261Z,0.00
2022-10-14T17:26:15.230Z,0.00
2022-10-14T17:27:15.230Z,0.00
2022-10-14T17:28:15.296Z,0.00
2022-10-14T17:29:15.193Z,0.00
2022-10-14T17:30:15.174Z,0.00
2022-10-14T17:31:15.163Z,0.00
2022-10-14T17:32:15.169Z,0.00
2022-10-14T17:33:15.139Z,0.00
2022-10-14T17:34:15.141Z,0.00
2022-10-14T17:35:15.468Z,0.00
2022-10-14T17:36:15.118Z,0.00
2022-10-14T17:37:15.117Z,0.00
2022-10-14T17:38:15.087Z,0.00
2022-10-14T17:39:20.122Z,0.00
2022-10-14T17:40:16.065Z,0.00
2022-10-14T17:41:15.120Z,0.00
2022-10-14T17:42:15.054Z,0.00
2022-10-14T17:43:15.029Z,0.00
2022-10-14T17:44:15.011Z,0.00
2022-10-14T17:45:15.017Z,0.00
2022-10-14T17:46:14.993Z,0.00
2022-10-14T17:47:15.051Z,0.00
2022-10-14T17:48:14.962Z,0.00
2022-10-14T17:49:14.951Z,0.00
2022-10-14T17:50:14.944Z,0.00
2022-10-14T17:51:14.927Z,0.00
2022-10-14T17:52:14.937Z,0.00
2022-10-14T17:53:14.908Z,0.00
2022-10-14T17:54:14.902Z,0.00
2022-10-14T17:55:14.930Z,0.00
2022-10-14T17:56:14.871Z,0.00
2022-10-14T17:57:14.894Z,0.00
2022-10-14T17:58:14.856Z,0.00
2022-10-14T17:59:14.846Z,0.00
2022-10-14T18:00:14.831Z,0.00
2022-10-14T18:01:14.979Z,0.00
2022-10-14T18:02:14.957Z,0.00
2022-10-14T18:03:14.798Z,0.00
2022-10-14T18:04:14.819Z,0.00
2022-10-14T18:05:14.765Z,0.00
2022-10-14T18:06:14.753Z,0.00
2022-10-14T18:07:14.749Z,0.00
2022-10-14T18:08:14.759Z,0.00
2022-10-14T18:09:14.727Z,0.00
2022-10-14T18:10:14.707Z,0.00
2022-10-14T18:11:14.723Z,0.00
2022-10-14T18:12:14.696Z,0.00
2022-10-14T18:13:14.710Z,0.00
2022-10-14T18:14:14.672Z,0.00
2022-10-14T18:15:14.661Z,0.00
2022-10-14T18:16:14.639Z,0.00
2022-10-14T18:17:14.638Z,0.00
2022-10-14T18:18:14.626Z,0.00
2022-10-14T18:19:14.620Z,0.00
2022-10-14T18:20:14.599Z,0.00
2022-10-14T18:21:14.588Z,0.00
2022-10-14T18:22:14.573Z,0.00
2022-10-14T18:23:14.566Z,0.00
2022-10-14T18:24:14.570Z,0.00
2022-10-14T18:25:14.539Z,0.00
2022-10-14T18:26:14.530Z,0.00
2022-10-14T18:27:14.511Z,0.00
2022-10-14T18:28:14.524Z,0.00
2022-10-14T18:29:14.508Z,0.00
2022-10-14T18:30:14.483Z,0.00
2022-10-14T18:31:14.464Z,0.00
2022-10-14T18:32:14.464Z,0.00
2022-10-14T18:33:14.468Z,0.00
2022-10-14T18:34:14.439Z,0.00
2022-10-14T18:35:14.427Z,0.00
2022-10-14T18:36:14.419Z,0.00
2022-10-14T18:37:14.407Z,0.00
2022-10-14T18:38:14.402Z,0.00
2022-10-14T18:39:14.370Z,0.00
2022-10-14T18:40:14.367Z,0.00
2022-10-14T18:41:14.350Z,0.00
